Time;durP1;ratioP1;P1;durP2;ratioP2;P2;SDS_P1;SDS_P2;PMS_P1;PMS_P2;Temp;Humidity;BMP_temperature;BMP_pressure;BME280_temperature;BME280_humidity;BME280_pressure;Samples;Min_cycle;Max_cycle;Signal;HPM_P1;HPM_P2
2023/03/13 00:00:13;;;;;;;9.48;2.53;;;;;;;11.20;86.64;99130.75;12216302;19;20377;-81
2023/03/13 00:04:14;;;;;;;11.30;2.70;;;;;;;11.20;86.54;99127.97;12198784;19;20011;-80
2023/03/13 00:08:16;;;;;;;12.15;2.88;;;;;;;11.25;86.30;99117.81;12228818;19;20054;-84
2023/03/13 00:12:18;;;;;;;13.02;3.28;;;;;;;11.22;86.54;99114.75;12278162;19;20003;-83
2023/03/13 00:16:20;;;;;;;9.95;1.90;;;;;;;11.25;86.19;99100.44;12250414;19;20007;-83
2023/03/13 00:20:22;;;;;;;11.10;3.10;;;;;;;11.28;85.90;99100.72;12267501;19;20034;-84
2023/03/13 00:24:23;;;;;;;16.65;2.95;;;;;;;11.24;85.85;99094.06;12243930;19;20015;-82
2023/03/13 00:28:30;;;;;;;10.60;2.90;;;;;;;11.26;85.91;99093.81;12198788;19;20002;-84
2023/03/13 00:32:33;;;;;;;14.40;3.15;;;;;;;11.28;85.56;99083.34;12216590;19;20006;-83
2023/03/13 00:36:35;;;;;;;12.00;2.83;;;;;;;11.33;85.25;99084.19;12216711;19;20006;-83
2023/03/13 00:40:37;;;;;;;11.53;2.50;;;;;;;11.39;84.93;99072.06;12196727;19;20010;-82
2023/03/13 00:44:38;;;;;;;15.60;3.08;;;;;;;11.43;84.53;99061.28;12212230;19;20352;-82
2023/03/13 00:48:41;;;;;;;11.48;2.65;;;;;;;11.47;84.31;99062.41;12213175;19;20010;-83
2023/03/13 00:52:43;;;;;;;15.07;2.77;;;;;;;11.54;84.03;99060.22;12193643;19;20695;-83
2023/03/13 00:56:45;;;;;;;13.90;2.57;;;;;;;11.54;84.10;99059.34;12212719;19;20030;-82
2023/03/13 01:00:46;;;;;;;11.73;2.97;;;;;;;11.59;83.79;99046.41;12191269;19;20015;-82
2023/03/13 01:04:48;;;;;;;7.75;2.42;;;;;;;11.68;83.39;99040.34;12204743;19;20030;-82
2023/03/13 01:08:50;;;;;;;12.75;2.78;;;;;;;11.69;83.45;99022.66;12211664;19;20035;-81
2023/03/13 01:12:55;;;;;;;7.85;2.17;;;;;;;11.77;83.31;99020.19;12186839;19;20007;-83
2023/03/13 01:16:58;;;;;;;10.23;2.33;;;;;;;11.76;83.26;99006.66;12208295;19;20010;-83
2023/03/13 01:21:00;;;;;;;10.18;2.40;;;;;;;11.75;83.29;99005.84;12210606;19;20002;-81
2023/03/13 01:25:03;;;;;;;7.88;2.00;;;;;;;11.75;83.51;98982.91;12183070;19;20037;-82
2023/03/13 01:29:04;;;;;;;6.90;2.30;;;;;;;11.77;83.59;98984.28;12208439;19;20010;-82
2023/03/13 01:33:06;;;;;;;8.68;1.75;;;;;;;11.78;83.66;98977.69;12205826;19;20472;-82
2023/03/13 01:37:08;;;;;;;12.35;2.35;;;;;;;11.79;83.93;98967.47;12186214;19;20010;-82
2023/03/13 01:41:11;;;;;;;8.70;2.13;;;;;;;11.81;84.14;98957.00;12207934;19;20017;-81
2023/03/13 01:45:31;;;;;;;;;;;;;;;11.84;84.40;98937.94;12198350;19;20006;-82
2023/03/13 01:49:33;;;;;;;7.32;1.80;;;;;;;11.90;84.12;98947.06;12194737;19;19915;-81
2023/03/13 01:54:22;;;;;;;8.05;1.88;;;;;;;11.93;84.48;98938.22;12205112;19;20011;-81
2023/03/13 01:58:27;;;;;;;8.65;2.17;;;;;;;11.97;84.19;98936.53;12186354;19;20013;-81
2023/03/13 02:02:30;;;;;;;7.20;2.40;;;;;;;12.01;84.26;98936.81;12214891;19;20045;-83
2023/03/13 02:06:35;;;;;;;9.10;2.77;;;;;;;12.03;84.15;98916.09;12218293;19;20007;-83
2023/03/13 02:10:45;;;;;;;9.88;2.00;;;;;;;11.96;84.94;98907.28;12197512;19;20652;-83
2023/03/13 02:14:49;;;;;;;6.97;1.33;;;;;;;11.91;85.69;98899.00;12215999;19;20014;-81
2023/03/13 02:18:51;;;;;;;9.45;2.00;;;;;;;11.87;86.67;98892.41;12185623;19;20733;-81
2023/03/13 02:23:01;;;;;;;11.10;2.20;;;;;;;11.91;86.62;98879.69;12214029;19;19998;-80
2023/03/13 02:27:03;;;;;;;10.18;1.75;;;;;;;11.97;86.45;98875.81;12210279;19;20003;-84
2023/03/13 02:31:09;;;;;;;9.27;1.80;;;;;;;11.94;87.23;98859.81;12194890;19;20093;-84
2023/03/13 02:35:14;;;;;;;10.63;2.20;;;;;;;11.99;87.20;98867.25;12212913;19;20006;-82
2023/03/13 02:39:19;;;;;;;7.00;1.60;;;;;;;12.06;88.69;98857.53;12216088;19;20010;-81
2023/03/13 02:43:29;;;;;;;4.72;1.58;;;;;;;12.06;89.60;98859.47;12197012;19;20023;-82
2023/03/13 02:47:32;;;;;;;10.00;1.77;;;;;;;11.90;89.85;98863.41;12223250;19;20030;-81
2023/03/13 02:51:40;;;;;;;10.05;2.22;;;;;;;11.84;93.85;98866.16;12254868;19;20018;-83
2023/03/13 02:55:43;;;;;;;8.02;2.28;;;;;;;11.69;96.04;98840.53;12233297;19;20002;-85
2023/03/13 02:59:45;;;;;;;9.38;1.77;;;;;;;11.51;99.42;98829.00;12253913;19;20014;-86
2023/03/13 03:03:48;;;;;;;9.10;2.15;;;;;;;11.41;99.17;98829.84;12230308;19;20007;-84
2023/03/13 03:07:50;;;;;;;8.07;2.17;;;;;;;11.33;100.00;98813.03;12253476;19;20002;-85
2023/03/13 03:11:51;;;;;;;7.68;2.00;;;;;;;11.28;100.00;98802.84;12245106;19;20054;-86
2023/03/13 03:15:54;;;;;;;7.78;2.20;;;;;;;11.23;100.00;98807.56;12222016;19;20041;-85
2023/03/13 03:19:55;;;;;;;6.15;2.08;;;;;;;11.19;100.00;98796.25;12238431;19;20003;-83
2023/03/13 03:23:57;;;;;;;6.47;1.40;;;;;;;11.12;100.00;98795.69;12226539;19;20017;-83
2023/03/13 03:27:59;;;;;;;7.40;1.80;;;;;;;11.15;100.00;98795.16;12205585;19;20007;-83
2023/03/13 03:32:02;;;;;;;8.60;1.75;;;;;;;11.22;100.00;98797.63;12228564;19;20002;-84
2023/03/13 03:36:08;;;;;;;8.75;1.67;;;;;;;11.32;100.00;98801.19;12218334;19;20006;-86
2023/03/13 03:40:10;;;;;;;7.10;1.67;;;;;;;11.35;100.00;98797.84;12196011;19;20040;-85
2023/03/13 03:44:12;;;;;;;7.13;1.80;;;;;;;11.21;100.00;98795.97;12228434;19;20006;-84
2023/03/13 03:48:24;;;;;;;7.63;1.90;;;;;;;11.04;100.00;98799.03;12212617;19;20002;-82
2023/03/13 03:52:25;;;;;;;8.30;2.07;;;;;;;10.81;100.00;98805.94;12197040;19;20551;-82
2023/03/13 03:56:27;;;;;;;6.80;1.67;;;;;;;10.66;100.00;98801.25;12207092;19;20006;-82
2023/03/13 04:00:31;;;;;;;4.55;1.52;;;;;;;10.52;100.00;98794.63;12208769;19;20003;-81
2023/03/13 04:04:33;;;;;;;7.13;1.70;;;;;;;10.43;100.00;98789.66;12183568;19;20472;-79
2023/03/13 04:08:39;;;;;;;10.80;1.80;;;;;;;10.34;100.00;98780.28;12201747;19;20243;-81
2023/03/13 04:12:42;;;;;;;8.25;1.98;;;;;;;10.22;100.00;98777.75;12193244;19;20326;-81
2023/03/13 04:16:44;;;;;;;9.15;2.08;;;;;;;10.23;100.00;98773.94;12197230;19;20038;-78
2023/03/13 04:20:48;;;;;;;9.13;1.83;;;;;;;10.15;100.00;98771.69;12200812;19;20026;-82
2023/03/13 04:24:49;;;;;;;6.50;1.88;;;;;;;10.13;100.00;98768.38;12172145;19;20349;-81
2023/03/13 04:28:53;;;;;;;9.00;1.58;;;;;;;10.18;100.00;98757.38;12203560;19;20496;-81
2023/03/13 04:33:09;;;;;;;12.98;2.13;;;;;;;10.23;100.00;98762.06;12198450;19;20420;-82
2023/03/13 04:37:46;;;;;;;4.63;1.50;;;;;;;10.27;100.00;98758.53;12180958;19;20040;-81
2023/03/13 04:42:00;;;;;;;3.60;1.40;;;;;;;10.33;100.00;98753.88;12197576;19;20006;-81
2023/03/13 04:46:12;;;;;;;11.20;1.80;;;;;;;10.39;100.00;98754.69;12176030;19;20033;-82
2023/03/13 04:50:23;;;;;;;3.53;1.38;;;;;;;10.34;100.00;98761.00;12203546;19;20010;-80
2023/03/13 04:54:38;;;;;;;4.97;1.50;;;;;;;10.45;100.00;98750.84;12202220;19;20032;-81
2023/03/13 04:58:58;;;;;;;7.47;1.98;;;;;;;10.48;100.00;98750.28;12200141;19;20034;-82
2023/03/13 05:03:25;;;;;;;3.50;1.00;;;;;;;10.49;100.00;98714.19;12248063;19;19999;-83
2023/03/13 05:07:47;;;;;;;3.63;1.27;;;;;;;10.58;100.00;98722.72;12187703;19;20027;-81
2023/03/13 05:12:07;;;;;;;4.80;1.15;;;;;;;10.63;100.00;98719.16;12210699;19;20009;-82
2023/03/13 05:16:26;;;;;;;5.80;1.20;;;;;;;10.73;100.00;98714.44;12180043;19;20006;-80
2023/03/13 05:20:43;;;;;;;4.82;1.20;;;;;;;10.79;100.00;98708.94;12204335;19;20003;-83
2023/03/13 05:25:05;;;;;;;5.57;1.13;;;;;;;10.81;100.00;98701.22;12178882;19;20021;-81
2023/03/13 05:29:13;;;;;;;6.72;1.30;;;;;;;10.85;100.00;98708.63;12204896;19;20011;-84
2023/03/13 05:33:28;;;;;;;4.25;1.55;;;;;;;10.87;100.00;98698.19;12205471;19;20425;-82
2023/03/13 05:37:46;;;;;;;3.88;1.23;;;;;;;11.02;100.00;98696.50;12188461;19;20006;-82
2023/03/13 05:42:08;;;;;;;3.83;1.40;;;;;;;11.07;100.00;98693.72;12226847;19;20018;-83
2023/03/13 05:46:16;;;;;;;2.28;1.10;;;;;;;11.11;100.00;98681.03;12237425;19;20072;-83
2023/03/13 05:50:26;;;;;;;3.03;1.33;;;;;;;11.24;100.00;98696.13;12273261;19;20062;-82
2023/03/13 05:54:57;;;;;;;3.50;1.10;;;;;;;11.29;100.00;98702.47;12201262;19;21142;-82
2023/03/13 05:59:31;;;;;;;2.85;0.90;;;;;;;11.40;100.00;98700.50;12213154;19;20023;-81
2023/03/13 06:03:47;;;;;;;3.67;1.13;;;;;;;11.46;100.00;98704.88;12190602;19;20010;-81
2023/03/13 06:07:51;;;;;;;2.85;1.10;;;;;;;11.58;100.00;98701.78;12207381;19;20093;-81
2023/03/13 06:11:53;;;;;;;4.80;1.45;;;;;;;11.62;100.00;98694.59;12211079;19;20006;-81
2023/03/13 06:15:57;;;;;;;3.08;1.42;;;;;;;11.69;100.00;98699.78;12186392;19;20348;-82
2023/03/13 06:20:14;;;;;;;3.35;1.20;;;;;;;11.75;100.00;98699.50;12214461;19;20028;-82
2023/03/13 06:24:16;;;;;;;3.00;1.02;;;;;;;11.74;100.00;98695.06;12207861;19;20006;-82
2023/03/13 06:28:18;;;;;;;3.13;1.00;;;;;;;11.80;100.00;98693.09;12188697;19;20006;-85
2023/03/13 06:32:21;;;;;;;3.08;1.15;;;;;;;11.89;100.00;98696.13;12214622;19;20133;-81
2023/03/13 06:36:24;;;;;;;3.55;1.08;;;;;;;11.92;100.00;98695.56;12210201;19;20066;-82
2023/03/13 06:40:26;;;;;;;3.33;0.90;;;;;;;11.96;100.00;98683.66;12193866;19;20011;-83
2023/03/13 06:44:28;;;;;;;1.73;1.00;;;;;;;12.06;100.00;98691.03;12211429;19;20055;-80
2023/03/13 06:48:29;;;;;;;4.60;1.15;;;;;;;12.12;100.00;98681.59;12212233;19;20014;-83
2023/03/13 06:52:31;;;;;;;1.20;0.80;;;;;;;12.13;100.00;98672.19;12189210;19;20006;-84
2023/03/13 06:56:44;;;;;;;1.92;0.80;;;;;;;12.22;100.00;98666.88;12206576;19;20038;-82
2023/03/13 07:00:46;;;;;;;3.15;1.45;;;;;;;12.27;100.00;98659.38;12183410;19;20035;-80
2023/03/13 07:04:48;;;;;;;4.15;1.23;;;;;;;12.35;100.00;98644.16;12220320;19;20392;-81
2023/03/13 07:08:53;;;;;;;4.07;1.23;;;;;;;12.45;100.00;98626.66;12207505;19;20381;-82
2023/03/13 07:12:55;;;;;;;3.08;0.80;;;;;;;12.50;100.00;98640.41;12196443;19;20041;-83
2023/03/13 07:16:58;;;;;;;2.00;0.75;;;;;;;12.58;100.00;98642.53;12220800;19;20010;-82
2023/03/13 07:21:03;;;;;;;4.18;0.90;;;;;;;12.57;100.00;98648.34;12218982;19;20071;-82
2023/03/13 07:25:06;;;;;;;3.03;0.60;;;;;;;12.48;100.00;98650.94;12195169;19;20014;-82
2023/03/13 07:29:10;;;;;;;1.85;0.70;;;;;;;12.57;100.00;98659.41;12220997;19;20003;-82
2023/03/13 07:33:12;;;;;;;3.50;0.82;;;;;;;12.63;100.00;98669.31;12223061;19;20140;-84
2023/03/13 07:37:15;;;;;;;2.15;0.90;;;;;;;12.70;100.00;98670.63;12202772;19;20007;-84
2023/03/13 07:41:18;;;;;;;2.75;0.90;;;;;;;12.60;100.00;98673.47;12222203;19;20078;-83
2023/03/13 07:45:20;;;;;;;3.72;0.90;;;;;;;12.56;100.00;98675.19;12226152;19;20022;-80
2023/03/13 07:49:22;;;;;;;4.25;1.20;;;;;;;12.54;100.00;98680.97;12206168;19;20103;-80
2023/03/13 07:53:25;;;;;;;1.45;0.85;;;;;;;12.56;100.00;98679.88;12220553;19;20113;-84
2023/03/13 07:57:29;;;;;;;2.65;1.00;;;;;;;12.56;100.00;98686.22;12226326;19;20007;-82
2023/03/13 08:01:32;;;;;;;2.25;0.90;;;;;;;12.60;100.00;98692.00;12198333;19;20010;-83
2023/03/13 08:05:34;;;;;;;2.95;1.17;;;;;;;12.61;100.00;98685.34;12216321;19;20760;-82
2023/03/13 08:09:36;;;;;;;5.15;1.10;;;;;;;12.70;100.00;98687.22;12218475;19;20038;-83
2023/03/13 08:13:40;;;;;;;3.67;1.25;;;;;;;12.85;100.00;98677.09;12194044;19;20091;-81
2023/03/13 08:17:41;;;;;;;1.83;0.90;;;;;;;12.99;100.00;98683.56;12216101;19;20014;-81
2023/03/13 08:21:43;;;;;;;3.33;0.95;;;;;;;13.17;100.00;98687.53;12205995;19;20030;-81
2023/03/13 08:25:44;;;;;;;4.53;1.13;;;;;;;13.38;100.00;98688.94;12217279;19;20011;-80
2023/03/13 08:29:46;;;;;;;3.45;1.55;;;;;;;13.55;100.00;98696.78;12218395;19;20010;-81
2023/03/13 08:33:48;;;;;;;4.37;1.20;;;;;;;13.76;100.00;98710.34;12195319;19;20046;-81
2023/03/13 08:37:51;;;;;;;2.13;1.40;;;;;;;13.95;100.00;98702.03;12217480;19;20049;-83
2023/03/13 08:41:54;;;;;;;3.92;1.30;;;;;;;14.16;100.00;98703.41;12216128;19;20002;-84
2023/03/13 08:45:57;;;;;;;3.25;1.38;;;;;;;14.23;100.00;98701.06;12189162;19;20030;-84
2023/03/13 08:49:59;;;;;;;3.10;1.10;;;;;;;14.32;100.00;98706.75;12215212;19;20006;-83
2023/03/13 08:54:02;;;;;;;5.30;1.40;;;;;;;14.40;100.00;98700.53;12209204;19;20020;-83
2023/03/13 08:58:05;;;;;;;2.92;1.15;;;;;;;14.50;100.00;98708.66;12191825;19;20007;-82
2023/03/13 09:02:08;;;;;;;2.80;1.13;;;;;;;14.41;100.00;98704.94;12215141;19;20064;-83
2023/03/13 09:06:11;;;;;;;5.05;1.25;;;;;;;14.54;100.00;98712.50;12216970;19;20018;-81
2023/03/13 09:10:14;;;;;;;3.30;1.20;;;;;;;14.59;100.00;98712.41;12191317;19;20003;-81
2023/03/13 09:14:17;;;;;;;1.85;1.10;;;;;;;14.72;100.00;98710.00;12219451;19;20006;-84
2023/03/13 09:18:19;;;;;;;3.60;1.20;;;;;;;14.72;100.00;98704.44;12246406;19;20011;-86
2023/03/13 09:22:21;;;;;;;2.65;1.20;;;;;;;14.69;100.00;98688.41;12207618;19;20074;-85
2023/03/13 09:26:24;;;;;;;2.40;1.02;;;;;;;14.70;100.00;98681.75;12223194;19;20003;-84
2023/03/13 09:30:25;;;;;;;2.70;1.27;;;;;;;14.64;100.00;98683.81;12220912;19;20350;-82
2023/03/13 09:34:28;;;;;;;3.55;1.30;;;;;;;14.89;100.00;98668.63;12198023;19;20018;-84
2023/03/13 09:38:31;;;;;;;1.60;1.50;;;;;;;15.04;100.00;98634.22;12219025;19;20006;-82
2023/03/13 09:42:51;;;;;;;1.97;1.13;;;;;;;15.26;100.00;98636.31;12227230;19;20514;-84
2023/03/13 09:47:02;;;;;;;2.75;1.48;;;;;;;15.28;100.00;98617.38;12226420;19;20039;-85
2023/03/13 09:51:10;;;;;;;1.67;1.20;;;;;;;15.42;100.00;98612.63;12263336;19;20353;-84
2023/03/13 09:55:22;;;;;;;4.95;1.65;;;;;;;15.62;100.00;98610.53;12212841;19;20043;-84
2023/03/13 09:59:47;;;;;;;1.95;1.25;;;;;;;15.63;100.00;98612.19;12240025;19;20009;-82
2023/03/13 10:04:05;;;;;;;2.13;1.10;;;;;;;15.86;97.56;98611.13;12202515;19;20076;-84
2023/03/13 10:08:14;;;;;;;4.13;1.30;;;;;;;16.45;96.71;98604.66;12231258;19;20026;-84
2023/03/13 10:12:27;;;;;;;3.03;1.20;;;;;;;17.05;91.52;98593.03;12223186;19;20007;-83
2023/03/13 10:16:51;;;;;;;2.28;1.13;;;;;;;17.52;88.70;98598.88;12198691;19;20007;-83
2023/03/13 10:20:59;;;;;;;4.28;1.33;;;;;;;17.93;84.35;98600.41;12217537;19;20014;-84
2023/03/13 10:25:10;;;;;;;2.08;1.20;;;;;;;17.39;85.25;98595.06;12205395;19;20013;-83
2023/03/13 10:29:17;;;;;;;2.80;1.10;;;;;;;17.09;86.91;98594.03;12228315;19;20003;-83
2023/03/13 10:33:27;;;;;;;2.47;1.40;;;;;;;16.82;89.02;98593.09;12228748;19;20010;-82
2023/03/13 10:37:41;;;;;;;3.00;1.25;;;;;;;16.72;89.63;98581.44;12205196;19;20027;-83
2023/03/13 10:41:42;;;;;;;1.93;1.33;;;;;;;16.49;91.26;98575.09;12230760;19;20400;-82
2023/03/13 10:45:45;;;;;;;2.83;1.60;;;;;;;16.41;92.37;98587.78;12207794;19;20006;-82
2023/03/13 10:49:50;;;;;;;1.88;1.30;;;;;;;16.24;93.89;98588.53;12228507;19;20364;-83
2023/03/13 10:53:52;;;;;;;2.13;1.10;;;;;;;16.18;94.23;98576.72;12226413;19;20063;-83
2023/03/13 10:57:59;;;;;;;3.05;1.40;;;;;;;16.38;93.59;98580.91;12199860;19;20017;-82
2023/03/13 11:02:18;;;;;;;2.13;1.20;;;;;;;16.30;92.29;98562.22;12221447;19;20013;-82
2023/03/13 11:06:32;;;;;;;3.60;1.40;;;;;;;16.14;93.81;98560.97;12225734;19;20006;-82
2023/03/13 11:10:36;;;;;;;3.08;1.55;;;;;;;16.16;94.26;98556.75;12206498;19;20007;-85
2023/03/13 11:14:38;;;;;;;4.10;1.30;;;;;;;16.29;93.92;98546.66;12214481;19;20078;-82
2023/03/13 11:19:12;;;;;;;2.38;1.27;;;;;;;16.51;93.04;98548.59;12227341;19;20003;-83
2023/03/13 11:23:23;;;;;;;7.55;1.60;;;;;;;16.76;92.11;98538.75;12131319;19;2005136;-83
2023/03/13 11:27:37;;;;;;;3.92;1.50;;;;;;;17.12;90.55;98523.78;12250269;19;20013;-86
2023/03/13 11:31:48;;;;;;;5.60;1.67;;;;;;;17.31;88.34;98504.84;12254708;19;19998;-86
2023/03/13 11:36:15;;;;;;;4.55;1.80;;;;;;;17.52;86.37;98498.63;12245290;19;20011;-83
2023/03/13 11:40:25;;;;;;;6.65;1.73;;;;;;;17.62;84.50;98481.56;12206802;19;20067;-83
2023/03/13 11:44:29;;;;;;;4.15;1.48;;;;;;;17.76;82.92;98481.41;12216901;19;20010;-84
2023/03/13 11:48:43;;;;;;;3.60;1.30;;;;;;;17.75;82.33;98474.19;12217627;19;20115;-85
2023/03/13 11:53:02;;;;;;;3.22;1.65;;;;;;;17.87;80.79;98467.97;12197109;19;20006;-82
2023/03/13 11:57:28;;;;;;;4.50;1.88;;;;;;;17.90;80.68;98448.59;12217607;19;20419;-85
2023/03/13 12:01:40;;;;;;;3.50;1.45;;;;;;;17.82;80.04;98454.19;12192846;19;20014;-85
2023/03/13 12:05:50;;;;;;;5.72;1.90;;;;;;;17.73;81.30;98438.31;12214796;19;20010;-84
2023/03/13 12:10:02;;;;;;;4.65;1.67;;;;;;;17.53;82.17;98430.63;12195387;19;20010;-80
2023/03/13 12:14:12;;;;;;;4.18;1.80;;;;;;;17.62;82.55;98420.28;12211898;19;20114;-83
2023/03/13 12:18:34;;;;;;;4.80;1.35;;;;;;;17.76;81.85;98418.13;12211901;19;20344;-85
2023/03/13 12:22:48;;;;;;;3.00;1.33;;;;;;;17.85;80.90;98412.56;12194946;19;20006;-84
2023/03/13 12:26:56;;;;;;;5.30;1.33;;;;;;;18.21;79.61;98389.00;12216593;19;20493;-84
2023/03/13 12:31:08;;;;;;;5.13;1.58;;;;;;;18.74;74.44;98381.16;12202347;19;20516;-87
2023/03/13 12:35:32;;;;;;;2.88;1.50;;;;;;;18.87;75.03;98374.53;12211728;19;20011;-86
2023/03/13 12:39:41;;;;;;;3.75;1.58;;;;;;;19.22;73.54;98379.84;12220298;19;20011;-84
2023/03/13 12:43:46;;;;;;;4.30;1.70;;;;;;;19.29;72.40;98366.13;12195201;19;20010;-84
2023/03/13 12:48:22;;;;;;;2.60;1.27;;;;;;;19.27;71.71;98354.47;12216314;19;20010;-86
2023/03/13 12:52:38;;;;;;;2.33;1.20;;;;;;;19.21;71.94;98355.84;12196352;19;20005;-84
2023/03/13 12:56:50;;;;;;;2.45;1.25;;;;;;;19.05;72.75;98345.31;12211794;19;20013;-84
2023/03/13 13:00:54;;;;;;;1.55;1.20;;;;;;;18.93;73.21;98328.50;12197878;19;20054;-84
2023/03/13 13:04:58;;;;;;;4.05;1.60;;;;;;;18.93;72.63;98310.94;12215961;19;20010;-84
2023/03/13 13:09:13;;;;;;;3.25;1.40;;;;;;;19.16;73.03;98301.03;12218214;19;20006;-85
2023/03/13 13:13:27;;;;;;;6.30;1.70;;;;;;;19.37;72.40;98300.19;12192035;19;20018;-84
2023/03/13 13:17:29;;;;;;;;;;;;;;;19.29;71.83;98290.72;12205505;19;20464;-85
2023/03/13 13:21:32;;;;;;;2.80;1.20;;;;;;;19.20;71.09;98273.25;12211996;19;20325;-84
2023/03/13 13:25:34;;;;;;;3.60;1.38;;;;;;;19.28;72.43;98272.34;12185506;19;20002;-83
2023/03/13 13:29:36;;;;;;;7.22;1.23;;;;;;;19.25;71.12;98262.69;12211858;19;20014;-83
2023/03/13 13:33:39;;;;;;;2.40;1.17;;;;;;;19.49;71.38;98238.75;12208410;19;20007;-82
2023/03/13 13:37:42;;;;;;;4.78;1.42;;;;;;;19.96;69.37;98219.59;12185428;19;20106;-82
2023/03/13 13:41:43;;;;;;;2.00;1.08;;;;;;;20.25;68.59;98209.28;12219149;19;20009;-84
2023/03/13 13:46:04;;;;;;;2.95;1.15;;;;;;;20.32;66.07;98189.91;12206724;19;20006;-85
2023/03/13 13:50:20;;;;;;;2.55;1.23;;;;;;;20.41;64.05;98175.78;12223284;19;20073;-85
2023/03/13 13:54:40;;;;;;;1.25;1.05;;;;;;;20.58;64.67;98177.50;12212438;19;20014;-83
2023/03/13 13:58:44;;;;;;;3.17;1.33;;;;;;;21.08;62.15;98159.28;12196372;19;20006;-83
2023/03/13 14:02:51;;;;;;;2.47;1.10;;;;;;;21.25;60.11;98149.72;12232016;19;20014;-84
2023/03/13 14:06:58;;;;;;;2.35;1.00;;;;;;;21.14;58.85;98133.44;12209695;19;20468;-83
2023/03/13 14:11:15;;;;;;;1.70;1.00;;;;;;;21.04;59.80;98122.78;12240138;19;20033;-85
2023/03/13 14:15:26;;;;;;;2.03;1.10;;;;;;;20.93;60.45;98105.69;12262088;19;20009;-83
2023/03/13 14:19:40;;;;;;;2.35;1.38;;;;;;;20.65;60.10;98108.56;12245153;19;20007;-85
2023/03/13 14:23:45;;;;;;;1.85;1.23;;;;;;;20.55;60.63;98089.47;12266106;19;20022;-86
2023/03/13 14:27:53;;;;;;;2.10;0.98;;;;;;;20.78;61.25;98084.09;12248487;19;20005;-84
2023/03/13 14:31:57;;;;;;;2.42;1.23;;;;;;;20.84;60.94;98091.06;12269604;19;20011;-85
2023/03/13 14:36:00;;;;;;;4.05;1.30;;;;;;;20.60;60.10;98074.41;12266860;19;19991;-83
2023/03/13 14:40:23;;;;;;;1.95;1.20;;;;;;;20.65;60.50;98063.78;12251652;19;20050;-84
2023/03/13 14:44:29;;;;;;;2.63;1.23;;;;;;;20.54;60.89;98037.50;12264998;19;20010;-85
2023/03/13 14:48:33;;;;;;;1.92;1.17;;;;;;;20.65;60.89;98007.00;12259465;19;20007;-84
2023/03/13 14:52:36;;;;;;;2.95;1.02;;;;;;;20.99;59.95;97997.03;12228719;19;20013;-86
2023/03/13 14:56:41;;;;;;;2.00;1.10;;;;;;;21.11;57.59;97987.72;12237011;19;20069;-82
2023/03/13 15:00:44;;;;;;;4.32;1.42;;;;;;;21.08;58.46;97988.44;12231535;19;20037;-85
2023/03/13 15:05:00;;;;;;;1.58;1.17;;;;;;;20.99;58.55;97991.44;12230485;19;20102;-84
2023/03/13 15:09:19;;;;;;;4.32;1.25;;;;;;;20.75;59.42;97994.44;12230202;19;20408;-83
2023/03/13 15:13:30;;;;;;;1.75;1.15;;;;;;;20.46;59.91;97986.13;12208937;19;20011;-83
2023/03/13 15:17:33;;;;;;;1.67;1.02;;;;;;;20.13;60.27;97966.03;12226760;19;20003;-85
2023/03/13 15:21:36;;;;;;;;;;;;;;;20.00;61.26;97982.88;12230060;19;20006;-84
2023/03/13 15:25:39;;;;;;;4.03;1.13;;;;;;;19.79;61.80;97959.91;12206129;19;19934;-84
2023/03/13 15:29:41;;;;;;;2.03;0.98;;;;;;;19.64;62.24;97969.03;12226536;19;20074;-84
2023/03/13 15:33:43;;;;;;;3.13;1.00;;;;;;;19.48;62.79;97966.97;12217776;19;20098;-85
2023/03/13 15:37:45;;;;;;;2.67;1.45;;;;;;;19.40;63.22;97964.31;12226915;19;20007;-83
2023/03/13 15:41:47;;;;;;;2.50;1.20;;;;;;;19.35;63.20;97968.16;12230154;19;20066;-83
2023/03/13 15:45:50;;;;;;;2.72;1.00;;;;;;;19.11;57.42;98179.22;12196875;19;20022;-82
2023/03/13 15:49:52;;;;;;;44.15;4.35;;;;;;;15.06;85.77;98271.34;12214362;19;20018;-87
2023/03/13 15:53:54;;;;;;;0.13;0.13;;;;;;;10.95;100.00;98126.28;12212061;19;20038;-82
2023/03/13 15:57:56;;;;;;;0.10;0.10;;;;;;;9.91;100.00;98112.94;12187183;19;20440;-83
2023/03/13 16:01:58;;;;;;;0.20;0.20;;;;;;;9.65;100.00;98093.84;12210734;19;20009;-84
2023/03/13 16:06:00;;;;;;;0.10;0.10;;;;;;;9.61;100.00;98086.44;12201292;19;20134;-84
2023/03/13 16:10:03;;;;;;;0.10;0.10;;;;;;;9.61;100.00;98069.94;12189811;19;20066;-84
2023/03/13 16:14:04;;;;;;;0.32;0.32;;;;;;;9.65;100.00;98062.78;12206356;19;20074;-83
2023/03/13 16:18:12;;;;;;;;;;;;;;;9.65;100.00;98033.34;12209063;19;20094;-83
2023/03/13 16:22:14;;;;;;;0.10;0.10;;;;;;;9.61;100.00;98036.94;12187115;19;19909;-83
2023/03/13 16:26:18;;;;;;;0.10;0.10;;;;;;;9.58;100.00;98032.88;12211869;19;20007;-83
2023/03/13 16:30:24;;;;;;;0.20;0.20;;;;;;;9.63;100.00;98029.25;12207439;19;20010;-83
2023/03/13 16:34:27;;;;;;;0.25;0.25;;;;;;;9.69;100.00;98006.09;12184522;19;20006;-83
2023/03/13 16:38:29;;;;;;;0.10;0.10;;;;;;;9.80;100.00;98011.22;12209080;19;20062;-83
2023/03/13 16:42:31;;;;;;;0.10;0.10;;;;;;;9.94;100.00;98010.56;12201643;19;21671;-83
2023/03/13 16:46:39;;;;;;;0.10;0.10;;;;;;;10.05;100.00;98014.84;12179795;19;20030;-83
2023/03/13 16:50:45;;;;;;;0.10;0.10;;;;;;;10.15;100.00;98030.44;12203610;19;20045;-82
2023/03/13 16:54:47;;;;;;;0.20;0.20;;;;;;;10.29;100.00;98028.66;12181919;19;20051;-83
2023/03/13 16:58:48;;;;;;;0.10;0.10;;;;;;;10.48;100.00;98034.25;12197177;19;20027;-81
2023/03/13 17:02:50;;;;;;;0.10;0.10;;;;;;;10.64;100.00;98016.41;12196715;19;20031;-81
2023/03/13 17:06:52;;;;;;;0.00;0.00;;;;;;;10.76;100.00;98004.97;12177950;19;20030;-82
2023/03/13 17:10:54;;;;;;;2.13;0.65;;;;;;;10.84;100.00;98020.03;12206232;19;20031;-82
2023/03/13 17:14:56;;;;;;;0.10;0.10;;;;;;;10.92;100.00;97989.09;12237274;19;20010;-81
2023/03/13 17:18:59;;;;;;;0.10;0.10;;;;;;;10.95;100.00;97982.97;12242234;19;20003;-82
2023/03/13 17:23:01;;;;;;;0.25;0.25;;;;;;;11.01;100.00;98003.84;12231163;19;20011;-83
2023/03/13 17:27:04;;;;;;;0.10;0.10;;;;;;;11.10;100.00;97995.72;12202572;19;20110;-82
2023/03/13 17:31:07;;;;;;;0.10;0.10;;;;;;;11.23;100.00;97983.13;12174816;19;20463;-83
2023/03/13 17:35:09;;;;;;;0.10;0.10;;;;;;;11.34;100.00;97979.91;12197509;19;20086;-83
2023/03/13 17:39:14;;;;;;;0.10;0.10;;;;;;;11.41;100.00;97972.06;12196158;19;20475;-82
2023/03/13 17:43:16;;;;;;;0.10;0.10;;;;;;;11.49;100.00;97953.22;12175387;19;20056;-82
2023/03/13 17:47:22;;;;;;;0.10;0.10;;;;;;;11.55;100.00;97947.31;12202455;19;20507;-82
2023/03/13 17:51:27;;;;;;;0.10;0.10;;;;;;;11.60;100.00;97944.47;12207250;19;20034;-82
2023/03/13 17:55:29;;;;;;;0.10;0.10;;;;;;;11.67;100.00;97949.59;12177179;19;21566;-82
2023/03/13 17:59:31;;;;;;;0.50;0.50;;;;;;;11.73;100.00;97956.66;12200199;19;20010;-83
2023/03/13 18:03:32;;;;;;;0.10;0.10;;;;;;;11.79;100.00;97958.19;12198811;19;20452;-82
2023/03/13 18:07:34;;;;;;;1.10;0.60;;;;;;;11.83;100.00;97945.41;12182291;19;20007;-83
2023/03/13 18:11:37;;;;;;;0.10;0.10;;;;;;;11.91;100.00;97954.19;12197513;19;20002;-83
2023/03/13 18:15:39;;;;;;;0.40;0.40;;;;;;;11.94;100.00;97937.81;12194542;19;20027;-83
2023/03/13 18:19:42;;;;;;;0.13;0.13;;;;;;;11.98;100.00;97926.97;12169064;19;20022;-82
2023/03/13 18:23:44;;;;;;;0.10;0.10;;;;;;;11.99;100.00;97925.88;12187631;19;20087;-80
2023/03/13 18:27:45;;;;;;;0.10;0.10;;;;;;;12.04;100.00;97931.28;12173170;19;20006;-81
2023/03/13 18:31:49;;;;;;;0.10;0.10;;;;;;;12.00;100.00;97922.78;12205347;19;20088;-82
2023/03/13 18:35:52;;;;;;;0.20;0.20;;;;;;;12.03;100.00;97927.72;12196993;19;20015;-82
2023/03/13 18:39:55;;;;;;;0.30;0.30;;;;;;;12.05;100.00;97910.84;12174574;19;20610;-83
2023/03/13 18:43:56;;;;;;;0.20;0.20;;;;;;;12.07;100.00;97925.16;12197807;19;20013;-82
2023/03/13 18:47:58;;;;;;;0.10;0.10;;;;;;;12.07;100.00;97937.00;12209217;19;20007;-82
2023/03/13 18:52:00;;;;;;;0.08;0.08;;;;;;;12.07;100.00;97952.75;12191437;19;20070;-83
2023/03/13 18:56:13;;;;;;;0.10;0.10;;;;;;;12.08;100.00;97965.44;12205271;19;20003;-82
2023/03/13 19:00:19;;;;;;;0.10;0.10;;;;;;;12.09;100.00;97975.38;12208526;19;20464;-82